createdAt,value
2017-06-19T00:02:03.562Z,43.1
2017-06-19T00:07:03.204Z,42.9
2017-06-19T00:12:03.443Z,43.0
2017-06-19T00:17:03.405Z,43.0
2017-06-19T00:22:03.848Z,43.0
2017-06-19T00:27:03.658Z,42.9
2017-06-19T00:32:03.517Z,42.8
2017-06-19T00:37:03.526Z,42.8
2017-06-19T00:42:03.448Z,42.8
2017-06-19T00:47:03.236Z,42.8
2017-06-19T00:52:03.028Z,42.7
2017-06-19T00:57:03.689Z,42.7
2017-06-19T01:02:03.418Z,42.6
2017-06-19T01:07:03.570Z,42.7
2017-06-19T01:12:03.285Z,42.7
2017-06-19T01:17:03.855Z,42.7
2017-06-19T01:22:03.647Z,42.7
2017-06-19T01:27:03.242Z,42.5
2017-06-19T01:32:03.137Z,42.4
2017-06-19T01:37:03.781Z,42.4
2017-06-19T01:42:03.427Z,42.6
2017-06-19T01:47:03.117Z,42.4
2017-06-19T01:52:03.723Z,42.4
2017-06-19T01:57:03.580Z,42.5
2017-06-19T02:02:03.606Z,42.5
2017-06-19T02:07:03.643Z,42.3
2017-06-19T02:12:03.510Z,42.2
2017-06-19T02:17:03.365Z,42.3
2017-06-19T02:22:03.463Z,42.3
2017-06-19T02:27:03.676Z,42.2
2017-06-19T02:32:11.065Z,42.3
2017-06-19T02:37:03.413Z,42.3
2017-06-19T02:42:03.771Z,42.2
2017-06-19T02:47:21.730Z,42.1
2017-06-19T02:52:03.696Z,42.2
2017-06-19T02:57:03.217Z,42.1
2017-06-19T03:02:23.915Z,42.1
2017-06-19T03:07:03.883Z,42.2
2017-06-19T03:12:03.157Z,42.0
2017-06-19T03:17:22.460Z,42.1
2017-06-19T03:22:03.397Z,42.0
2017-06-19T03:27:03.834Z,42.0
2017-06-19T03:32:21.778Z,41.9
2017-06-19T03:37:03.622Z,41.9
2017-06-19T03:42:03.924Z,41.8
2017-06-19T03:47:27.555Z,41.9
2017-06-19T03:52:03.675Z,41.8
2017-06-19T03:57:03.122Z,41.7
2017-06-19T04:02:21.986Z,41.7
2017-06-19T04:07:03.120Z,41.6
2017-06-19T04:12:03.659Z,41.5
2017-06-19T04:17:22.595Z,41.5
2017-06-19T04:22:03.266Z,41.2
2017-06-19T04:27:03.734Z,41.1
2017-06-19T04:32:24.960Z,41.0
2017-06-19T04:37:03.431Z,40.9
2017-06-19T04:42:03.709Z,40.8
2017-06-19T04:47:23.592Z,40.7
2017-06-19T04:52:03.485Z,40.5
2017-06-19T04:57:03.757Z,40.7
2017-06-19T05:02:21.290Z,40.6
2017-06-19T05:07:03.805Z,40.7
2017-06-19T05:12:03.267Z,40.7
2017-06-19T05:17:24.402Z,40.8
2017-06-19T05:22:03.202Z,40.9
2017-06-19T05:27:03.639Z,40.9
2017-06-19T05:32:29.018Z,41.0
2017-06-19T05:37:03.139Z,41.0
2017-06-19T05:42:03.604Z,41.2
2017-06-19T05:47:22.573Z,41.3
2017-06-19T05:52:03.846Z,41.3
2017-06-19T05:57:03.308Z,41.4
2017-06-19T06:02:28.283Z,41.3
2017-06-19T06:07:03.793Z,41.5
2017-06-19T06:12:03.163Z,41.6
2017-06-19T06:17:25.601Z,41.7
2017-06-19T06:22:03.574Z,41.8
2017-06-19T06:27:03.913Z,42.0
2017-06-19T06:32:23.712Z,41.9
2017-06-19T06:37:03.982Z,42.0
2017-06-19T06:42:03.389Z,42.3
2017-06-19T06:47:23.927Z,42.3
2017-06-19T06:52:03.987Z,42.4
2017-06-19T06:57:03.384Z,42.4
2017-06-19T07:07:03.331Z,42.7
2017-06-19T07:12:03.783Z,42.9
2017-06-19T07:17:33.341Z,43.0
2017-06-19T07:22:03.799Z,43.2
2017-06-19T07:27:03.270Z,43.1
2017-06-19T07:32:24.068Z,43.2
2017-06-19T07:37:03.123Z,43.2
2017-06-19T07:42:03.551Z,43.2
2017-06-19T07:52:03.528Z,43.7
2017-06-19T07:57:03.038Z,43.7
2017-06-19T08:07:03.715Z,44.1
2017-06-19T08:12:03.146Z,44.1
2017-06-19T08:17:34.053Z,44.1
2017-06-19T08:22:03.719Z,44.2
2017-06-19T08:27:03.080Z,44.4
2017-06-19T08:32:29.721Z,44.6
2017-06-19T08:37:03.388Z,44.6
2017-06-19T08:42:03.808Z,44.8
2017-06-19T08:47:27.689Z,44.7
2017-06-19T08:52:03.501Z,44.7
2017-06-19T08:57:03.841Z,44.7
2017-06-19T09:02:23.619Z,45.2
2017-06-19T09:07:03.814Z,45.3
2017-06-19T09:12:03.277Z,45.2
2017-06-19T09:17:24.318Z,45.6
2017-06-19T09:22:03.505Z,45.6
2017-06-19T09:27:03.897Z,45.6
2017-06-19T09:37:03.872Z,45.8
2017-06-19T09:42:03.143Z,45.8
2017-06-19T09:47:24.719Z,46.0
2017-06-19T09:52:03.118Z,45.9
2017-06-19T09:57:03.451Z,45.7
2017-06-19T10:02:24.166Z,45.6
2017-06-19T10:07:03.830Z,46.1
2017-06-19T10:12:03.610Z,46.2
2017-06-19T10:17:33.255Z,46.3
2017-06-19T10:22:03.014Z,46.2
2017-06-19T10:27:03.341Z,46.2
2017-06-19T10:32:23.741Z,46.1
2017-06-19T10:37:03.770Z,46.4
2017-06-19T10:42:03.289Z,46.5
2017-06-19T10:47:25.431Z,46.5
2017-06-19T10:52:03.480Z,46.5
2017-06-19T10:57:03.778Z,46.4
2017-06-19T11:02:24.842Z,46.4
2017-06-19T11:07:03.622Z,46.8
2017-06-19T11:12:03.171Z,46.7
2017-06-19T11:17:26.608Z,47.2
2017-06-19T11:22:03.258Z,47.3
2017-06-19T11:27:03.746Z,47.3
2017-06-19T11:32:27.270Z,46.7
2017-06-19T11:37:03.826Z,46.7
2017-06-19T11:42:03.472Z,47.5
2017-06-19T11:47:25.703Z,47.4
2017-06-19T11:52:03.702Z,47.8
2017-06-19T11:57:03.232Z,47.7
2017-06-19T12:02:27.847Z,47.5
2017-06-19T12:07:03.332Z,47.6
2017-06-19T12:12:03.795Z,48.0
2017-06-19T12:17:24.776Z,48.2
2017-06-19T12:22:03.838Z,48.2
2017-06-19T12:27:03.494Z,48.0
2017-06-19T12:32:29.287Z,48.1
2017-06-19T12:37:03.778Z,47.9
2017-06-19T12:42:03.115Z,48.2
2017-06-19T12:47:28.692Z,48.2
2017-06-19T12:52:03.703Z,48.6
2017-06-19T12:57:03.114Z,48.6
2017-06-19T13:02:23.799Z,48.6
2017-06-19T13:07:03.497Z,48.2
2017-06-19T13:12:03.955Z,49.0
2017-06-19T13:22:03.761Z,48.9
2017-06-19T13:27:03.158Z,48.9
2017-06-19T13:37:03.522Z,48.8
2017-06-19T13:42:03.811Z,48.9
2017-06-19T13:47:28.195Z,48.9
2017-06-19T13:52:02.997Z,48.9
2017-06-19T13:57:03.759Z,48.4
2017-06-19T14:02:27.764Z,48.4
2017-06-19T14:07:03.755Z,49.4
2017-06-19T14:12:03.349Z,49.4
2017-06-19T14:17:25.204Z,49.2
2017-06-19T14:22:03.062Z,48.9
2017-06-19T14:27:03.405Z,48.9
2017-06-19T14:32:23.364Z,48.2
2017-06-19T14:37:03.734Z,48.2
2017-06-19T14:42:03.103Z,46.8
2017-06-19T14:47:24.163Z,43.2
2017-06-19T14:52:03.056Z,43.2
2017-06-19T14:57:03.467Z,41.8
2017-06-19T15:02:27.510Z,40.7
2017-06-19T15:07:03.138Z,38.1
2017-06-19T15:12:03.613Z,37.3
2017-06-19T15:17:22.722Z,36.5
2017-06-19T15:22:03.320Z,36.5
2017-06-19T15:27:03.708Z,36.1
2017-06-19T15:37:03.520Z,35.3
2017-06-19T15:42:03.800Z,35.4
2017-06-19T15:52:03.494Z,35.1
2017-06-19T15:57:03.753Z,34.9
2017-06-19T16:02:16.415Z,34.9
2017-06-19T16:07:03.355Z,35.2
2017-06-19T16:12:03.756Z,35.0
2017-06-19T16:17:16.835Z,35.3
2017-06-19T16:22:03.743Z,35.3
2017-06-19T16:27:03.110Z,35.3
2017-06-19T16:32:16.975Z,35.2
2017-06-19T16:37:03.093Z,35.2
2017-06-19T16:42:03.408Z,34.3
2017-06-19T16:47:17.209Z,35.0
2017-06-19T16:52:03.470Z,35.0
2017-06-19T16:57:03.755Z,35.0
2017-06-19T17:02:15.007Z,34.7
2017-06-19T17:07:03.154Z,35.1
2017-06-19T17:12:03.538Z,35.4
2017-06-19T17:17:15.947Z,35.6
2017-06-19T17:22:03.441Z,34.6
2017-06-19T17:27:03.821Z,35.5
2017-06-19T17:32:14.731Z,34.6
2017-06-19T17:37:03.016Z,34.6
2017-06-19T17:42:03.318Z,34.1
2017-06-19T17:47:14.902Z,35.2
2017-06-19T17:52:03.141Z,33.8
2017-06-19T17:57:03.969Z,32.9
2017-06-19T18:02:12.587Z,34.0
2017-06-19T18:07:03.531Z,34.0
2017-06-19T18:12:03.880Z,33.6
2017-06-19T18:22:03.766Z,38.4
2017-06-19T18:27:03.954Z,40.6
2017-06-19T18:32:25.205Z,38.1
2017-06-19T18:37:03.436Z,38.1
2017-06-19T18:42:03.751Z,40.2
2017-06-19T18:47:29.491Z,41.6
2017-06-19T18:52:03.710Z,41.8
2017-06-19T18:57:03.160Z,42.1
2017-06-19T19:02:24.818Z,42.1
2017-06-19T19:07:03.668Z,41.9
2017-06-19T19:12:03.223Z,42.3
2017-06-19T19:17:24.348Z,42.1
2017-06-19T19:22:03.881Z,42.2
2017-06-19T19:27:03.221Z,41.9
2017-06-19T19:32:24.066Z,42.1
2017-06-19T19:37:03.263Z,42.6
2017-06-19T19:42:03.034Z,42.6
2017-06-19T19:47:24.023Z,42.3
2017-06-19T19:52:03.547Z,42.5
2017-06-19T19:57:03.911Z,42.7
2017-06-19T20:07:03.727Z,42.4
2017-06-19T20:12:03.224Z,42.4
2017-06-19T20:17:11.816Z,42.3
2017-06-19T20:22:03.530Z,42.3
2017-06-19T20:27:03.881Z,42.3
2017-06-19T20:32:08.526Z,42.0
2017-06-19T20:37:03.348Z,42.1
2017-06-19T20:42:03.658Z,42.1
2017-06-19T20:47:04.179Z,42.2
2017-06-19T20:52:03.337Z,42.2
2017-06-19T20:57:03.624Z,42.2
2017-06-19T21:02:04.243Z,42.1
2017-06-19T21:07:03.222Z,42.0
2017-06-19T21:12:03.750Z,42.0
2017-06-19T21:17:04.422Z,42.0
2017-06-19T21:22:03.507Z,42.0
2017-06-19T21:27:03.716Z,42.0
2017-06-19T21:32:04.335Z,42.1
2017-06-19T21:37:03.431Z,42.1
2017-06-19T21:42:03.661Z,42.2
2017-06-19T21:47:04.244Z,42.2
2017-06-19T21:52:03.333Z,42.2
2017-06-19T21:57:03.613Z,42.2
2017-06-19T22:02:04.274Z,42.3
2017-06-19T22:07:03.389Z,42.2
2017-06-19T22:12:03.670Z,41.9
2017-06-19T22:22:03.826Z,41.6
2017-06-19T22:27:03.940Z,41.9
2017-06-19T22:32:03.371Z,41.8
2017-06-19T22:37:03.046Z,41.7
2017-06-19T22:42:03.571Z,41.7
2017-06-19T22:47:03.061Z,41.7
2017-06-19T22:52:03.329Z,41.7
2017-06-19T22:57:03.766Z,41.7
2017-06-19T23:02:03.409Z,41.7
2017-06-19T23:07:03.915Z,41.7
2017-06-19T23:12:03.660Z,41.7
2017-06-19T23:17:03.496Z,41.7
2017-06-19T23:22:03.575Z,41.7
2017-06-19T23:27:03.185Z,41.7
2017-06-19T23:32:03.883Z,41.6
2017-06-19T23:37:03.503Z,41.6
2017-06-19T23:42:03.113Z,41.6
2017-06-19T23:47:03.735Z,41.4
2017-06-19T23:52:03.315Z,41.4
2017-06-19T23:57:03.317Z,41.5
